sensor_id;sensor_type;location;lat;lon;timestamp;temperature;humidity
16158;DHT22;8184;60.256;18.694;2022-08-02T00:00:56;16.00;99.90
16158;DHT22;8184;60.256;18.694;2022-08-02T00:03:24;16.00;99.90
16158;DHT22;8184;60.256;18.694;2022-08-02T00:05:56;15.90;99.90
16158;DHT22;8184;60.256;18.694;2022-08-02T00:08:24;15.90;99.90
16158;DHT22;8184;60.256;18.694;2022-08-02T00:10:53;15.80;99.90
16158;DHT22;8184;60.256;18.694;2022-08-02T00:13:21;15.80;99.90
16158;DHT22;8184;60.256;18.694;2022-08-02T00:15:49;15.70;99.90
16158;DHT22;8184;60.256;18.694;2022-08-02T00:18:17;15.50;99.90
16158;DHT22;8184;60.256;18.694;2022-08-02T00:20:46;15.50;99.90
16158;DHT22;8184;60.256;18.694;2022-08-02T00:23:14;15.40;99.90
16158;DHT22;8184;60.256;18.694;2022-08-02T00:25:42;15.50;99.90
16158;DHT22;8184;60.256;18.694;2022-08-02T00:28:23;15.40;99.90
16158;DHT22;8184;60.256;18.694;2022-08-02T00:30:54;15.40;99.90
16158;DHT22;8184;60.256;18.694;2022-08-02T00:33:25;15.40;99.90
16158;DHT22;8184;60.256;18.694;2022-08-02T00:36:13;15.40;99.90
16158;DHT22;8184;60.256;18.694;2022-08-02T00:38:41;15.30;99.90
16158;DHT22;8184;60.256;18.694;2022-08-02T00:41:11;15.40;99.90
16158;DHT22;8184;60.256;18.694;2022-08-02T00:43:41;15.40;99.90
16158;DHT22;8184;60.256;18.694;2022-08-02T00:46:09;15.40;99.90
16158;DHT22;8184;60.256;18.694;2022-08-02T00:48:37;15.40;99.90
16158;DHT22;8184;60.256;18.694;2022-08-02T00:51:09;15.50;99.90
16158;DHT22;8184;60.256;18.694;2022-08-02T00:53:37;15.40;99.90
16158;DHT22;8184;60.256;18.694;2022-08-02T00:56:05;15.40;99.90
16158;DHT22;8184;60.256;18.694;2022-08-02T00:58:33;15.40;99.90
16158;DHT22;8184;60.256;18.694;2022-08-02T01:01:03;15.50;99.90
16158;DHT22;8184;60.256;18.694;2022-08-02T01:03:31;15.40;99.90
16158;DHT22;8184;60.256;18.694;2022-08-02T01:05:59;15.50;99.90
16158;DHT22;8184;60.256;18.694;2022-08-02T01:08:42;15.50;99.90
16158;DHT22;8184;60.256;18.694;2022-08-02T01:11:10;15.40;99.90
16158;DHT22;8184;60.256;18.694;2022-08-02T01:13:39;15.30;99.90
16158;DHT22;8184;60.256;18.694;2022-08-02T01:16:10;15.30;99.90
16158;DHT22;8184;60.256;18.694;2022-08-02T01:18:40;15.30;99.90
16158;DHT22;8184;60.256;18.694;2022-08-02T01:21:18;15.30;99.90
16158;DHT22;8184;60.256;18.694;2022-08-02T01:23:52;15.30;99.90
16158;DHT22;8184;60.256;18.694;2022-08-02T01:26:27;15.40;99.90
16158;DHT22;8184;60.256;18.694;2022-08-02T01:28:59;15.40;99.90
16158;DHT22;8184;60.256;18.694;2022-08-02T01:31:28;15.30;99.90
16158;DHT22;8184;60.256;18.694;2022-08-02T01:33:58;15.30;99.90
16158;DHT22;8184;60.256;18.694;2022-08-02T01:36:29;15.30;99.90
16158;DHT22;8184;60.256;18.694;2022-08-02T01:38:58;15.40;99.90
16158;DHT22;8184;60.256;18.694;2022-08-02T01:41:27;15.30;99.90
16158;DHT22;8184;60.256;18.694;2022-08-02T01:43:58;15.20;99.90
16158;DHT22;8184;60.256;18.694;2022-08-02T01:46:27;15.30;99.90
16158;DHT22;8184;60.256;18.694;2022-08-02T01:48:55;15.30;99.90
16158;DHT22;8184;60.256;18.694;2022-08-02T01:51:24;15.10;99.90
16158;DHT22;8184;60.256;18.694;2022-08-02T01:54:08;15.00;99.90
16158;DHT22;8184;60.256;18.694;2022-08-02T01:56:36;15.10;99.90
16158;DHT22;8184;60.256;18.694;2022-08-02T01:59:07;15.20;99.90
16158;DHT22;8184;60.256;18.694;2022-08-02T02:01:35;15.20;99.90
16158;DHT22;8184;60.256;18.694;2022-08-02T02:04:08;15.20;99.90
16158;DHT22;8184;60.256;18.694;2022-08-02T02:06:36;15.30;99.90
16158;DHT22;8184;60.256;18.694;2022-08-02T02:09:07;15.20;99.90
16158;DHT22;8184;60.256;18.694;2022-08-02T02:11:36;15.30;99.90
16158;DHT22;8184;60.256;18.694;2022-08-02T02:14:26;15.20;99.90
16158;DHT22;8184;60.256;18.694;2022-08-02T02:16:55;15.20;99.90
16158;DHT22;8184;60.256;18.694;2022-08-02T02:19:24;15.20;99.90
16158;DHT22;8184;60.256;18.694;2022-08-02T02:21:54;15.00;99.90
16158;DHT22;8184;60.256;18.694;2022-08-02T02:24:22;15.10;99.90
16158;DHT22;8184;60.256;18.694;2022-08-02T02:26:50;15.20;99.90
16158;DHT22;8184;60.256;18.694;2022-08-02T02:29:20;15.20;99.90
16158;DHT22;8184;60.256;18.694;2022-08-02T02:31:50;15.30;99.90
16158;DHT22;8184;60.256;18.694;2022-08-02T02:34:22;15.40;99.90
16158;DHT22;8184;60.256;18.694;2022-08-02T02:36:51;15.40;99.90
16158;DHT22;8184;60.256;18.694;2022-08-02T02:39:21;15.40;99.90
16158;DHT22;8184;60.256;18.694;2022-08-02T02:41:50;15.70;99.90
16158;DHT22;8184;60.256;18.694;2022-08-02T02:44:19;15.60;99.90
16158;DHT22;8184;60.256;18.694;2022-08-02T02:46:50;15.50;99.90
16158;DHT22;8184;60.256;18.694;2022-08-02T02:49:19;15.40;99.90
16158;DHT22;8184;60.256;18.694;2022-08-02T02:51:48;15.40;99.90
16158;DHT22;8184;60.256;18.694;2022-08-02T02:54:16;15.50;99.90
16158;DHT22;8184;60.256;18.694;2022-08-02T02:57:00;15.50;99.90
16158;DHT22;8184;60.256;18.694;2022-08-02T03:00:15;15.50;99.90
16158;DHT22;8184;60.256;18.694;2022-08-02T03:02:43;15.50;99.90
16158;DHT22;8184;60.256;18.694;2022-08-02T03:05:12;15.60;99.90
16158;DHT22;8184;60.256;18.694;2022-08-02T03:07:40;15.70;99.90
16158;DHT22;8184;60.256;18.694;2022-08-02T03:10:09;15.60;99.90
16158;DHT22;8184;60.256;18.694;2022-08-02T03:12:37;15.70;99.90
16158;DHT22;8184;60.256;18.694;2022-08-02T03:15:05;15.70;99.90
16158;DHT22;8184;60.256;18.694;2022-08-02T03:17:40;15.70;99.90
16158;DHT22;8184;60.256;18.694;2022-08-02T03:20:09;15.60;99.90
16158;DHT22;8184;60.256;18.694;2022-08-02T03:22:37;15.60;99.90
16158;DHT22;8184;60.256;18.694;2022-08-02T03:25:06;15.70;99.90
16158;DHT22;8184;60.256;18.694;2022-08-02T03:27:34;15.60;99.90
16158;DHT22;8184;60.256;18.694;2022-08-02T03:30:03;15.60;99.90
16158;DHT22;8184;60.256;18.694;2022-08-02T03:32:31;15.50;99.90
16158;DHT22;8184;60.256;18.694;2022-08-02T03:35:01;15.70;99.90
16158;DHT22;8184;60.256;18.694;2022-08-02T03:37:29;15.60;99.90
16158;DHT22;8184;60.256;18.694;2022-08-02T03:39:58;15.60;99.90
16158;DHT22;8184;60.256;18.694;2022-08-02T03:42:26;15.50;99.90
16158;DHT22;8184;60.256;18.694;2022-08-02T03:44:55;15.60;99.90
16158;DHT22;8184;60.256;18.694;2022-08-02T03:47:23;15.60;99.90
16158;DHT22;8184;60.256;18.694;2022-08-02T03:49:51;15.60;99.90
16158;DHT22;8184;60.256;18.694;2022-08-02T03:52:22;15.60;99.90
16158;DHT22;8184;60.256;18.694;2022-08-02T03:54:50;15.60;99.90
16158;DHT22;8184;60.256;18.694;2022-08-02T03:57:18;15.60;99.90
16158;DHT22;8184;60.256;18.694;2022-08-02T03:59:46;15.70;99.90
16158;DHT22;8184;60.256;18.694;2022-08-02T04:02:14;15.80;99.90
16158;DHT22;8184;60.256;18.694;2022-08-02T04:04:43;15.70;99.90
16158;DHT22;8184;60.256;18.694;2022-08-02T04:07:11;15.60;99.90
16158;DHT22;8184;60.256;18.694;2022-08-02T04:09:40;15.70;99.90
16158;DHT22;8184;60.256;18.694;2022-08-02T04:12:08;15.70;99.90
16158;DHT22;8184;60.256;18.694;2022-08-02T04:14:37;15.60;99.90
16158;DHT22;8184;60.256;18.694;2022-08-02T04:17:06;15.80;99.90
16158;DHT22;8184;60.256;18.694;2022-08-02T04:19:37;15.70;99.90
16158;DHT22;8184;60.256;18.694;2022-08-02T04:22:05;15.90;99.90
16158;DHT22;8184;60.256;18.694;2022-08-02T04:24:35;15.70;99.90
16158;DHT22;8184;60.256;18.694;2022-08-02T04:27:06;15.50;99.90
16158;DHT22;8184;60.256;18.694;2022-08-02T04:29:55;15.70;99.90
16158;DHT22;8184;60.256;18.694;2022-08-02T04:32:23;15.80;99.90
16158;DHT22;8184;60.256;18.694;2022-08-02T04:34:51;15.80;99.90
16158;DHT22;8184;60.256;18.694;2022-08-02T04:37:40;15.80;99.90
16158;DHT22;8184;60.256;18.694;2022-08-02T04:40:30;15.80;99.90
16158;DHT22;8184;60.256;18.694;2022-08-02T04:42:59;15.80;99.90
16158;DHT22;8184;60.256;18.694;2022-08-02T04:45:27;15.90;99.90
16158;DHT22;8184;60.256;18.694;2022-08-02T04:47:56;15.70;99.90
16158;DHT22;8184;60.256;18.694;2022-08-02T04:50:32;15.80;99.90
16158;DHT22;8184;60.256;18.694;2022-08-02T04:53:00;15.60;99.90
16158;DHT22;8184;60.256;18.694;2022-08-02T04:55:28;15.70;99.90
16158;DHT22;8184;60.256;18.694;2022-08-02T04:57:56;15.50;99.90
16158;DHT22;8184;60.256;18.694;2022-08-02T05:00:26;15.50;99.90
16158;DHT22;8184;60.256;18.694;2022-08-02T05:02:56;15.80;99.90
16158;DHT22;8184;60.256;18.694;2022-08-02T05:05:27;15.70;99.90
16158;DHT22;8184;60.256;18.694;2022-08-02T05:07:55;15.80;99.90
16158;DHT22;8184;60.256;18.694;2022-08-02T05:10:24;15.90;99.90
16158;DHT22;8184;60.256;18.694;2022-08-02T05:12:52;15.70;99.90
16158;DHT22;8184;60.256;18.694;2022-08-02T05:15:20;15.90;99.90
16158;DHT22;8184;60.256;18.694;2022-08-02T05:17:49;16.00;99.90
16158;DHT22;8184;60.256;18.694;2022-08-02T05:20:18;15.80;99.90
16158;DHT22;8184;60.256;18.694;2022-08-02T05:22:46;15.90;99.90
16158;DHT22;8184;60.256;18.694;2022-08-02T05:25:14;15.80;99.90
16158;DHT22;8184;60.256;18.694;2022-08-02T05:27:42;15.80;99.90
16158;DHT22;8184;60.256;18.694;2022-08-02T05:30:13;16.00;99.90
16158;DHT22;8184;60.256;18.694;2022-08-02T05:32:47;15.90;99.90
16158;DHT22;8184;60.256;18.694;2022-08-02T05:35:17;15.60;99.90
16158;DHT22;8184;60.256;18.694;2022-08-02T05:37:46;15.90;99.90
16158;DHT22;8184;60.256;18.694;2022-08-02T05:40:15;16.10;99.90
16158;DHT22;8184;60.256;18.694;2022-08-02T05:42:51;16.00;99.90
16158;DHT22;8184;60.256;18.694;2022-08-02T05:45:19;16.10;99.90
16158;DHT22;8184;60.256;18.694;2022-08-02T05:47:47;16.10;99.90
16158;DHT22;8184;60.256;18.694;2022-08-02T05:50:15;16.10;99.90
16158;DHT22;8184;60.256;18.694;2022-08-02T05:52:45;16.20;99.90
16158;DHT22;8184;60.256;18.694;2022-08-02T05:55:16;16.30;99.90
16158;DHT22;8184;60.256;18.694;2022-08-02T05:57:47;16.60;99.90
16158;DHT22;8184;60.256;18.694;2022-08-02T06:00:17;16.60;99.90
16158;DHT22;8184;60.256;18.694;2022-08-02T06:05:32;16.50;99.90
16158;DHT22;8184;60.256;18.694;2022-08-02T06:08:02;16.40;99.90
16158;DHT22;8184;60.256;18.694;2022-08-02T06:10:35;16.20;99.90
16158;DHT22;8184;60.256;18.694;2022-08-02T06:13:06;16.30;99.90
16158;DHT22;8184;60.256;18.694;2022-08-02T06:15:34;16.50;99.90
16158;DHT22;8184;60.256;18.694;2022-08-02T06:18:18;16.60;99.90
16158;DHT22;8184;60.256;18.694;2022-08-02T06:20:55;16.50;99.90
16158;DHT22;8184;60.256;18.694;2022-08-02T06:23:45;16.50;99.90
16158;DHT22;8184;60.256;18.694;2022-08-02T06:26:24;16.50;99.90
16158;DHT22;8184;60.256;18.694;2022-08-02T06:28:55;17.20;99.90
16158;DHT22;8184;60.256;18.694;2022-08-02T06:31:24;16.60;99.90
16158;DHT22;8184;60.256;18.694;2022-08-02T06:33:54;16.60;99.90
16158;DHT22;8184;60.256;18.694;2022-08-02T06:36:25;16.80;99.90
16158;DHT22;8184;60.256;18.694;2022-08-02T06:39:00;17.20;99.90
16158;DHT22;8184;60.256;18.694;2022-08-02T06:41:35;17.80;99.90
16158;DHT22;8184;60.256;18.694;2022-08-02T06:44:05;17.80;99.90
16158;DHT22;8184;60.256;18.694;2022-08-02T06:46:53;17.70;99.90
16158;DHT22;8184;60.256;18.694;2022-08-02T06:49:38;18.00;99.90
16158;DHT22;8184;60.256;18.694;2022-08-02T06:52:21;18.50;99.90
16158;DHT22;8184;60.256;18.694;2022-08-02T06:54:56;18.10;99.90
16158;DHT22;8184;60.256;18.694;2022-08-02T06:57:24;18.20;99.90
16158;DHT22;8184;60.256;18.694;2022-08-02T06:59:52;18.30;99.90
16158;DHT22;8184;60.256;18.694;2022-08-02T07:02:21;18.30;99.90
16158;DHT22;8184;60.256;18.694;2022-08-02T07:04:49;18.40;99.90
16158;DHT22;8184;60.256;18.694;2022-08-02T07:07:17;18.50;99.90
16158;DHT22;8184;60.256;18.694;2022-08-02T07:09:48;18.60;99.90
16158;DHT22;8184;60.256;18.694;2022-08-02T07:12:29;18.10;99.90
16158;DHT22;8184;60.256;18.694;2022-08-02T07:14:57;18.70;99.90
16158;DHT22;8184;60.256;18.694;2022-08-02T07:17:26;18.20;99.90
16158;DHT22;8184;60.256;18.694;2022-08-02T07:19:54;18.50;99.90
16158;DHT22;8184;60.256;18.694;2022-08-02T07:22:22;18.00;99.90
16158;DHT22;8184;60.256;18.694;2022-08-02T07:24:53;17.90;99.90
16158;DHT22;8184;60.256;18.694;2022-08-02T07:27:21;18.40;99.90
16158;DHT22;8184;60.256;18.694;2022-08-02T07:29:51;18.10;99.90
16158;DHT22;8184;60.256;18.694;2022-08-02T07:32:19;18.20;99.90
16158;DHT22;8184;60.256;18.694;2022-08-02T07:34:48;17.80;99.90
16158;DHT22;8184;60.256;18.694;2022-08-02T07:37:20;17.90;99.90
16158;DHT22;8184;60.256;18.694;2022-08-02T07:40:09;17.70;99.90
16158;DHT22;8184;60.256;18.694;2022-08-02T07:42:41;17.90;99.90
16158;DHT22;8184;60.256;18.694;2022-08-02T07:45:13;18.90;99.90
16158;DHT22;8184;60.256;18.694;2022-08-02T07:47:43;18.10;99.90
16158;DHT22;8184;60.256;18.694;2022-08-02T07:50:12;18.20;99.90
16158;DHT22;8184;60.256;18.694;2022-08-02T07:52:41;18.30;99.90
16158;DHT22;8184;60.256;18.694;2022-08-02T07:55:10;18.30;99.90
16158;DHT22;8184;60.256;18.694;2022-08-02T07:57:38;18.10;99.90
16158;DHT22;8184;60.256;18.694;2022-08-02T08:00:14;18.30;99.90
16158;DHT22;8184;60.256;18.694;2022-08-02T08:02:43;18.30;99.90
16158;DHT22;8184;60.256;18.694;2022-08-02T08:05:12;18.70;99.90
16158;DHT22;8184;60.256;18.694;2022-08-02T08:07:40;19.70;99.90
16158;DHT22;8184;60.256;18.694;2022-08-02T08:10:08;19.40;99.90
16158;DHT22;8184;60.256;18.694;2022-08-02T08:12:41;18.70;99.90
16158;DHT22;8184;60.256;18.694;2022-08-02T08:15:09;19.10;99.90
16158;DHT22;8184;60.256;18.694;2022-08-02T08:17:39;19.20;99.90
16158;DHT22;8184;60.256;18.694;2022-08-02T08:20:09;19.00;99.90
16158;DHT22;8184;60.256;18.694;2022-08-02T08:22:41;19.30;99.90
16158;DHT22;8184;60.256;18.694;2022-08-02T08:25:09;19.70;99.90
16158;DHT22;8184;60.256;18.694;2022-08-02T08:27:46;19.80;99.90
16158;DHT22;8184;60.256;18.694;2022-08-02T08:30:14;19.20;99.90
16158;DHT22;8184;60.256;18.694;2022-08-02T08:32:44;18.80;99.90
16158;DHT22;8184;60.256;18.694;2022-08-02T08:35:12;18.70;99.90
16158;DHT22;8184;60.256;18.694;2022-08-02T08:37:45;19.50;99.90
16158;DHT22;8184;60.256;18.694;2022-08-02T08:40:14;20.00;99.90
16158;DHT22;8184;60.256;18.694;2022-08-02T08:42:45;19.50;99.90
16158;DHT22;8184;60.256;18.694;2022-08-02T08:45:14;19.00;99.90
16158;DHT22;8184;60.256;18.694;2022-08-02T08:47:46;18.70;99.90
16158;DHT22;8184;60.256;18.694;2022-08-02T08:50:18;18.40;99.90
16158;DHT22;8184;60.256;18.694;2022-08-02T08:52:52;18.70;99.90
16158;DHT22;8184;60.256;18.694;2022-08-02T08:55:22;19.00;99.90
16158;DHT22;8184;60.256;18.694;2022-08-02T08:57:51;19.50;99.90
16158;DHT22;8184;60.256;18.694;2022-08-02T09:00:22;19.90;99.90
16158;DHT22;8184;60.256;18.694;2022-08-02T09:02:52;19.60;99.90
16158;DHT22;8184;60.256;18.694;2022-08-02T09:05:20;19.60;99.90
16158;DHT22;8184;60.256;18.694;2022-08-02T09:07:50;19.50;99.90
16158;DHT22;8184;60.256;18.694;2022-08-02T09:10:32;19.30;99.90
16158;DHT22;8184;60.256;18.694;2022-08-02T09:13:10;18.70;99.90
16158;DHT22;8184;60.256;18.694;2022-08-02T09:16:00;18.90;99.90
16158;DHT22;8184;60.256;18.694;2022-08-02T09:18:41;19.40;99.90
16158;DHT22;8184;60.256;18.694;2022-08-02T09:21:12;19.50;99.90
16158;DHT22;8184;60.256;18.694;2022-08-02T09:23:42;19.60;99.90
16158;DHT22;8184;60.256;18.694;2022-08-02T09:26:11;20.90;99.90
16158;DHT22;8184;60.256;18.694;2022-08-02T09:28:41;20.50;99.90
16158;DHT22;8184;60.256;18.694;2022-08-02T09:31:10;19.90;99.90
16158;DHT22;8184;60.256;18.694;2022-08-02T09:33:40;19.90;99.90
16158;DHT22;8184;60.256;18.694;2022-08-02T09:36:17;20.20;99.90
16158;DHT22;8184;60.256;18.694;2022-08-02T09:38:51;19.60;99.90
16158;DHT22;8184;60.256;18.694;2022-08-02T09:41:20;20.30;99.90
16158;DHT22;8184;60.256;18.694;2022-08-02T09:43:48;20.80;99.90
16158;DHT22;8184;60.256;18.694;2022-08-02T09:46:32;20.70;99.90
16158;DHT22;8184;60.256;18.694;2022-08-02T09:49:02;20.60;99.90
16158;DHT22;8184;60.256;18.694;2022-08-02T09:51:38;21.20;99.90
16158;DHT22;8184;60.256;18.694;2022-08-02T09:54:07;21.20;99.90
16158;DHT22;8184;60.256;18.694;2022-08-02T09:56:42;20.30;99.90
16158;DHT22;8184;60.256;18.694;2022-08-02T09:59:10;20.30;99.90
16158;DHT22;8184;60.256;18.694;2022-08-02T10:01:38;20.70;99.90
16158;DHT22;8184;60.256;18.694;2022-08-02T10:04:18;20.30;99.90
16158;DHT22;8184;60.256;18.694;2022-08-02T10:06:50;20.70;99.90
16158;DHT22;8184;60.256;18.694;2022-08-02T10:09:19;20.40;99.90
16158;DHT22;8184;60.256;18.694;2022-08-02T10:11:47;19.50;99.90
16158;DHT22;8184;60.256;18.694;2022-08-02T10:14:16;20.10;99.90
16158;DHT22;8184;60.256;18.694;2022-08-02T10:16:48;20.10;99.90
16158;DHT22;8184;60.256;18.694;2022-08-02T10:19:16;20.00;99.90
16158;DHT22;8184;60.256;18.694;2022-08-02T10:22:07;20.80;99.90
16158;DHT22;8184;60.256;18.694;2022-08-02T10:24:39;20.60;99.90
16158;DHT22;8184;60.256;18.694;2022-08-02T10:27:15;20.20;99.90
16158;DHT22;8184;60.256;18.694;2022-08-02T10:29:44;19.90;99.90
16158;DHT22;8184;60.256;18.694;2022-08-02T10:32:23;20.50;99.90
16158;DHT22;8184;60.256;18.694;2022-08-02T10:34:52;21.20;99.90
16158;DHT22;8184;60.256;18.694;2022-08-02T10:37:53;21.30;99.90
16158;DHT22;8184;60.256;18.694;2022-08-02T10:40:21;21.40;99.90
16158;DHT22;8184;60.256;18.694;2022-08-02T10:42:53;21.80;99.90
16158;DHT22;8184;60.256;18.694;2022-08-02T10:45:27;20.70;99.90
16158;DHT22;8184;60.256;18.694;2022-08-02T10:48:00;19.80;99.90
16158;DHT22;8184;60.256;18.694;2022-08-02T10:53:21;18.80;99.90
16158;DHT22;8184;60.256;18.694;2022-08-02T10:55:49;18.60;99.90
16158;DHT22;8184;60.256;18.694;2022-08-02T10:58:18;18.80;99.90
16158;DHT22;8184;60.256;18.694;2022-08-02T11:00:52;18.60;99.90
16158;DHT22;8184;60.256;18.694;2022-08-02T11:03:36;18.30;99.90
16158;DHT22;8184;60.256;18.694;2022-08-02T11:06:07;18.70;99.90
16158;DHT22;8184;60.256;18.694;2022-08-02T11:11:48;18.30;99.90
16158;DHT22;8184;60.256;18.694;2022-08-02T11:14:26;18.70;99.90
16158;DHT22;8184;60.256;18.694;2022-08-02T11:17:09;19.20;99.90
16158;DHT22;8184;60.256;18.694;2022-08-02T11:22:23;18.40;99.90
16158;DHT22;8184;60.256;18.694;2022-08-02T11:24:52;18.70;99.90
16158;DHT22;8184;60.256;18.694;2022-08-02T11:27:22;18.60;99.90
16158;DHT22;8184;60.256;18.694;2022-08-02T11:29:50;19.40;99.90
16158;DHT22;8184;60.256;18.694;2022-08-02T11:32:20;19.50;99.90
16158;DHT22;8184;60.256;18.694;2022-08-02T11:34:57;20.20;99.90
16158;DHT22;8184;60.256;18.694;2022-08-02T11:37:26;18.90;99.90
16158;DHT22;8184;60.256;18.694;2022-08-02T11:39:54;18.50;99.90
16158;DHT22;8184;60.256;18.694;2022-08-02T11:42:31;18.80;99.90
16158;DHT22;8184;60.256;18.694;2022-08-02T11:45:00;18.30;99.90
16158;DHT22;8184;60.256;18.694;2022-08-02T11:47:28;18.10;99.90
16158;DHT22;8184;60.256;18.694;2022-08-02T11:50:03;17.70;99.90
16158;DHT22;8184;60.256;18.694;2022-08-02T11:52:31;18.30;99.90
16158;DHT22;8184;60.256;18.694;2022-08-02T11:54:59;17.80;99.90
16158;DHT22;8184;60.256;18.694;2022-08-02T11:57:28;18.00;99.90
16158;DHT22;8184;60.256;18.694;2022-08-02T12:00:18;18.50;99.90
16158;DHT22;8184;60.256;18.694;2022-08-02T12:02:46;19.40;99.90
16158;DHT22;8184;60.256;18.694;2022-08-02T12:05:21;18.70;99.90
16158;DHT22;8184;60.256;18.694;2022-08-02T12:08:09;18.30;99.90
16158;DHT22;8184;60.256;18.694;2022-08-02T12:10:38;18.40;99.90
16158;DHT22;8184;60.256;18.694;2022-08-02T12:13:13;19.00;99.90
16158;DHT22;8184;60.256;18.694;2022-08-02T12:15:44;18.20;99.90
16158;DHT22;8184;60.256;18.694;2022-08-02T12:18:13;18.50;99.90
16158;DHT22;8184;60.256;18.694;2022-08-02T12:21:00;18.40;99.90
16158;DHT22;8184;60.256;18.694;2022-08-02T12:23:28;19.10;99.90
16158;DHT22;8184;60.256;18.694;2022-08-02T12:25:59;19.10;99.90
16158;DHT22;8184;60.256;18.694;2022-08-02T12:28:32;18.90;99.90
16158;DHT22;8184;60.256;18.694;2022-08-02T12:31:01;18.10;99.90
16158;DHT22;8184;60.256;18.694;2022-08-02T12:33:43;17.70;99.90
16158;DHT22;8184;60.256;18.694;2022-08-02T12:36:14;17.40;99.90
16158;DHT22;8184;60.256;18.694;2022-08-02T12:38:51;17.70;99.90
16158;DHT22;8184;60.256;18.694;2022-08-02T12:41:19;18.20;99.90
16158;DHT22;8184;60.256;18.694;2022-08-02T12:43:58;17.60;99.90
16158;DHT22;8184;60.256;18.694;2022-08-02T12:46:28;18.10;99.90
16158;DHT22;8184;60.256;18.694;2022-08-02T12:49:13;17.90;99.90
16158;DHT22;8184;60.256;18.694;2022-08-02T12:51:44;17.50;99.90
16158;DHT22;8184;60.256;18.694;2022-08-02T12:54:25;17.40;99.90
16158;DHT22;8184;60.256;18.694;2022-08-02T12:56:59;17.70;99.90
16158;DHT22;8184;60.256;18.694;2022-08-02T12:59:39;17.70;99.90
16158;DHT22;8184;60.256;18.694;2022-08-02T13:02:10;17.60;99.90
16158;DHT22;8184;60.256;18.694;2022-08-02T13:04:42;17.80;99.90
16158;DHT22;8184;60.256;18.694;2022-08-02T13:07:16;17.70;99.90
16158;DHT22;8184;60.256;18.694;2022-08-02T13:09:45;17.90;99.90
16158;DHT22;8184;60.256;18.694;2022-08-02T13:12:14;18.30;99.90
16158;DHT22;8184;60.256;18.694;2022-08-02T13:14:46;17.80;99.90
16158;DHT22;8184;60.256;18.694;2022-08-02T13:17:16;17.70;99.90
16158;DHT22;8184;60.256;18.694;2022-08-02T13:19:44;18.50;99.90
16158;DHT22;8184;60.256;18.694;2022-08-02T13:22:17;18.30;99.90
16158;DHT22;8184;60.256;18.694;2022-08-02T13:24:45;18.90;99.90
16158;DHT22;8184;60.256;18.694;2022-08-02T13:27:22;18.50;99.90
16158;DHT22;8184;60.256;18.694;2022-08-02T13:29:51;18.50;99.90
16158;DHT22;8184;60.256;18.694;2022-08-02T13:32:23;19.20;99.90
16158;DHT22;8184;60.256;18.694;2022-08-02T13:34:53;19.60;99.90
16158;DHT22;8184;60.256;18.694;2022-08-02T13:37:22;19.70;99.90
16158;DHT22;8184;60.256;18.694;2022-08-02T13:39:51;19.10;99.90
16158;DHT22;8184;60.256;18.694;2022-08-02T13:42:42;18.90;99.90
16158;DHT22;8184;60.256;18.694;2022-08-02T13:45:10;19.90;99.90
16158;DHT22;8184;60.256;18.694;2022-08-02T13:47:42;20.20;99.90
16158;DHT22;8184;60.256;18.694;2022-08-02T13:50:29;20.50;99.90
16158;DHT22;8184;60.256;18.694;2022-08-02T13:52:57;20.30;99.90
16158;DHT22;8184;60.256;18.694;2022-08-02T13:55:30;19.70;99.90
16158;DHT22;8184;60.256;18.694;2022-08-02T13:57:59;19.00;99.90
16158;DHT22;8184;60.256;18.694;2022-08-02T14:00:27;18.80;99.90
16158;DHT22;8184;60.256;18.694;2022-08-02T14:03:03;18.50;99.90
16158;DHT22;8184;60.256;18.694;2022-08-02T14:05:35;18.70;99.90
16158;DHT22;8184;60.256;18.694;2022-08-02T14:08:14;18.60;99.90
16158;DHT22;8184;60.256;18.694;2022-08-02T14:10:43;19.00;99.90
16158;DHT22;8184;60.256;18.694;2022-08-02T14:13:11;19.30;99.90
16158;DHT22;8184;60.256;18.694;2022-08-02T14:15:39;19.60;99.90
16158;DHT22;8184;60.256;18.694;2022-08-02T14:18:10;19.50;99.90
16158;DHT22;8184;60.256;18.694;2022-08-02T14:20:38;19.20;99.90
16158;DHT22;8184;60.256;18.694;2022-08-02T14:23:06;19.20;99.90
16158;DHT22;8184;60.256;18.694;2022-08-02T14:25:37;19.30;99.90
16158;DHT22;8184;60.256;18.694;2022-08-02T14:28:05;18.80;99.90
16158;DHT22;8184;60.256;18.694;2022-08-02T14:30:33;18.80;99.90
16158;DHT22;8184;60.256;18.694;2022-08-02T14:33:01;18.80;99.90
16158;DHT22;8184;60.256;18.694;2022-08-02T14:35:32;18.90;99.90
16158;DHT22;8184;60.256;18.694;2022-08-02T14:38:00;19.00;99.90
16158;DHT22;8184;60.256;18.694;2022-08-02T14:40:28;18.80;99.90
16158;DHT22;8184;60.256;18.694;2022-08-02T14:42:58;18.60;99.90
16158;DHT22;8184;60.256;18.694;2022-08-02T14:45:26;19.10;99.90
16158;DHT22;8184;60.256;18.694;2022-08-02T14:48:07;18.80;99.90
16158;DHT22;8184;60.256;18.694;2022-08-02T14:50:37;18.90;99.90
16158;DHT22;8184;60.256;18.694;2022-08-02T14:53:05;19.10;99.90
16158;DHT22;8184;60.256;18.694;2022-08-02T14:55:40;19.00;99.90
16158;DHT22;8184;60.256;18.694;2022-08-02T14:58:08;19.00;99.90
16158;DHT22;8184;60.256;18.694;2022-08-02T15:00:36;18.80;99.90
16158;DHT22;8184;60.256;18.694;2022-08-02T15:03:07;19.00;99.90
16158;DHT22;8184;60.256;18.694;2022-08-02T15:05:39;19.40;99.90
16158;DHT22;8184;60.256;18.694;2022-08-02T15:08:07;19.70;99.90
16158;DHT22;8184;60.256;18.694;2022-08-02T15:10:35;20.10;99.90
16158;DHT22;8184;60.256;18.694;2022-08-02T15:13:03;19.60;99.90
16158;DHT22;8184;60.256;18.694;2022-08-02T15:15:35;19.10;99.90
16158;DHT22;8184;60.256;18.694;2022-08-02T15:18:09;19.10;99.90
16158;DHT22;8184;60.256;18.694;2022-08-02T15:20:37;19.00;99.90
16158;DHT22;8184;60.256;18.694;2022-08-02T15:23:10;19.10;99.90
16158;DHT22;8184;60.256;18.694;2022-08-02T15:25:39;19.30;99.90
16158;DHT22;8184;60.256;18.694;2022-08-02T15:28:07;19.20;99.90
16158;DHT22;8184;60.256;18.694;2022-08-02T15:30:36;19.10;99.90
16158;DHT22;8184;60.256;18.694;2022-08-02T15:33:05;19.60;99.90
16158;DHT22;8184;60.256;18.694;2022-08-02T15:35:33;19.60;99.90
16158;DHT22;8184;60.256;18.694;2022-08-02T15:38:02;19.70;99.90
16158;DHT22;8184;60.256;18.694;2022-08-02T15:40:33;19.70;99.90
16158;DHT22;8184;60.256;18.694;2022-08-02T15:43:01;19.60;99.90
16158;DHT22;8184;60.256;18.694;2022-08-02T15:45:29;19.70;99.90
16158;DHT22;8184;60.256;18.694;2022-08-02T15:48:00;19.60;99.90
16158;DHT22;8184;60.256;18.694;2022-08-02T15:50:29;19.50;99.90
16158;DHT22;8184;60.256;18.694;2022-08-02T15:52:57;19.70;99.90
16158;DHT22;8184;60.256;18.694;2022-08-02T15:55:25;19.70;99.90
16158;DHT22;8184;60.256;18.694;2022-08-02T15:57:54;19.50;99.90
16158;DHT22;8184;60.256;18.694;2022-08-02T16:00:22;19.60;99.90
16158;DHT22;8184;60.256;18.694;2022-08-02T16:02:50;19.50;99.90
16158;DHT22;8184;60.256;18.694;2022-08-02T16:05:18;19.40;99.90
16158;DHT22;8184;60.256;18.694;2022-08-02T16:07:47;19.40;99.90